Maynooth, Canada
Current Conditions -  °F | °C
As of 6:21 PM on Tuesday 25 Nov 2014 (Local Time) from CYWA Reporting Station
Light Snow Light Snow  
Wind Chill: 28°   Ceiling: 1300
Heat Index: 36°   Visibility: 9mi
Dew Point: 23°   Wind: 12mph
Humidity: 60%   Direction: 250°WSW
Pressure: 29.87"   Gusts: NA
Location:  45.23°N, 77.93°W
Report Text: CYWA 252321Z AUTO 25010KT 9SM -SN BKN013 OVC081 02/M05 A2987
Loading
Personal Weather Stations






























Interactive Weather Map New forecast layout! Learn more

10-Day Weather Forecast

Advertisements
Track Severe Weather on mobile